createdAt,value
2018-07-26T00:01:49.235Z,55.89
2018-07-26T00:04:18.952Z,55.87
2018-07-26T00:06:48.708Z,56.18
2018-07-26T00:09:18.725Z,56.07
2018-07-26T00:11:48.605Z,55.85
2018-07-26T00:14:18.595Z,56.20
2018-07-26T00:16:48.729Z,55.69
2018-07-26T00:19:18.443Z,55.86
2018-07-26T00:21:48.192Z,55.52
2018-07-26T00:24:17.894Z,55.87
2018-07-26T00:26:48.152Z,55.42
2018-07-26T00:29:18.666Z,56.34
2018-07-26T00:31:48.804Z,55.61
2018-07-26T00:34:18.544Z,55.91
2018-07-26T00:36:48.244Z,56.00
2018-07-26T00:39:17.943Z,56.80
2018-07-26T00:41:48.133Z,56.22
2018-07-26T00:44:18.100Z,56.00
2018-07-26T00:46:47.847Z,57.57
2018-07-26T00:49:17.966Z,58.28
2018-07-26T00:51:47.680Z,58.08
2018-07-26T00:54:17.386Z,57.51
2018-07-26T00:56:47.067Z,57.21
2018-07-26T00:59:16.783Z,56.57
2018-07-26T01:01:49.367Z,57.29
2018-07-26T01:04:19.380Z,56.80
2018-07-26T01:06:49.129Z,57.40
2018-07-26T01:09:18.904Z,57.54
2018-07-26T01:11:48.691Z,57.54
2018-07-26T01:14:18.364Z,57.99
2018-07-26T01:16:48.108Z,57.23
2018-07-26T01:19:18.094Z,57.39
2018-07-26T01:21:47.806Z,56.55
2018-07-26T01:24:17.548Z,55.95
2018-07-26T01:26:47.273Z,56.16
2018-07-26T01:29:19.931Z,55.74
2018-07-26T01:31:53.603Z,55.70
2018-07-26T01:34:24.574Z,55.39
2018-07-26T01:36:55.351Z,55.22
2018-07-26T01:39:25.121Z,55.62
2018-07-26T01:41:54.788Z,56.80
2018-07-26T01:44:25.991Z,56.59
2018-07-26T01:46:55.681Z,57.89
2018-07-26T01:49:25.419Z,57.34
2018-07-26T01:51:55.136Z,58.10
2018-07-26T01:54:24.843Z,57.60
2018-07-26T01:56:54.579Z,58.48
2018-07-26T01:59:32.954Z,58.32
2018-07-26T02:02:02.662Z,60.65
2018-07-26T02:04:32.744Z,60.98
2018-07-26T02:07:02.464Z,62.26
2018-07-26T02:09:32.155Z,62.70
2018-07-26T02:12:01.873Z,61.98
2018-07-26T02:14:34.538Z,61.91
2018-07-26T02:17:04.708Z,60.59
2018-07-26T02:19:34.413Z,61.55
2018-07-26T02:22:04.136Z,60.42
2018-07-26T02:24:33.832Z,60.95
2018-07-26T02:27:03.560Z,61.04
2018-07-26T02:29:33.248Z,61.47
2018-07-26T02:32:02.945Z,61.24
2018-07-26T02:34:32.718Z,61.15
2018-07-26T02:37:02.424Z,61.15
2018-07-26T02:39:32.128Z,60.73
2018-07-26T02:42:01.794Z,60.91
2018-07-26T02:44:31.476Z,61.27
2018-07-26T02:47:01.209Z,61.59
2018-07-26T02:49:30.903Z,61.75
2018-07-26T02:52:00.615Z,61.73
2018-07-26T02:54:30.360Z,61.64
2018-07-26T02:57:00.088Z,60.86
2018-07-26T02:59:29.793Z,60.91
2018-07-26T03:01:59.573Z,62.21
2018-07-26T03:04:29.245Z,61.76
2018-07-26T03:06:58.916Z,63.52
2018-07-26T03:09:28.655Z,63.23
2018-07-26T03:11:58.412Z,62.79
2018-07-26T03:14:32.632Z,63.33
2018-07-26T03:17:02.322Z,62.00
2018-07-26T03:19:31.985Z,61.85
2018-07-26T03:22:02.452Z,62.35
2018-07-26T03:24:32.152Z,62.70
2018-07-26T03:27:01.877Z,63.46
2018-07-26T03:29:31.589Z,62.75
2018-07-26T03:32:01.354Z,62.76
2018-07-26T03:34:31.024Z,62.76
2018-07-26T03:37:00.753Z,64.53
2018-07-26T03:39:30.449Z,63.26
2018-07-26T03:42:00.206Z,63.52
2018-07-26T03:44:29.907Z,62.60
2018-07-26T03:47:00.008Z,63.46
2018-07-26T03:49:29.965Z,62.63
2018-07-26T03:51:59.664Z,63.22
2018-07-26T03:54:29.417Z,63.27
2018-07-26T03:56:59.116Z,62.61
2018-07-26T03:59:28.842Z,63.66
2018-07-26T04:01:58.557Z,63.90
2018-07-26T04:04:28.235Z,63.77
2018-07-26T04:06:58.158Z,65.29
2018-07-26T04:09:27.832Z,65.02
2018-07-26T04:11:57.559Z,64.81
2018-07-26T04:14:27.300Z,65.30
2018-07-26T04:16:56.987Z,65.67
2018-07-26T04:19:26.691Z,66.08
2018-07-26T04:21:56.356Z,65.55
2018-07-26T04:24:26.090Z,65.06
2018-07-26T04:26:56.172Z,63.75
2018-07-26T04:29:25.929Z,63.87
2018-07-26T04:31:55.702Z,63.75
2018-07-26T04:34:25.357Z,63.14
2018-07-26T04:36:55.125Z,63.45
2018-07-26T04:39:24.814Z,63.72
2018-07-26T04:41:54.500Z,64.24
2018-07-26T04:44:24.233Z,63.60
2018-07-26T04:46:53.949Z,63.37
2018-07-26T04:49:23.589Z,63.65
2018-07-26T04:51:53.319Z,64.26
2018-07-26T04:54:22.971Z,62.74
2018-07-26T04:56:52.687Z,62.05
2018-07-26T04:59:22.408Z,61.31
2018-07-26T05:01:52.095Z,60.48
2018-07-26T05:04:21.779Z,60.54
2018-07-26T05:06:51.515Z,59.71
2018-07-26T05:09:21.234Z,59.90
2018-07-26T05:11:50.907Z,59.23
2018-07-26T05:14:20.993Z,59.17
2018-07-26T05:16:50.686Z,59.98
2018-07-26T05:19:20.658Z,59.30
2018-07-26T05:21:50.356Z,59.98
2018-07-26T05:24:20.067Z,58.88
2018-07-26T05:26:49.752Z,58.58
2018-07-26T05:29:19.429Z,58.50
2018-07-26T05:31:49.087Z,58.40
2018-07-26T05:34:18.743Z,58.85
2018-07-26T05:36:48.427Z,58.30
2018-07-26T05:39:18.123Z,58.52
2018-07-26T05:41:47.799Z,58.72
2018-07-26T05:44:17.439Z,58.51
2018-07-26T05:46:47.177Z,57.61
2018-07-26T05:49:16.880Z,57.67
2018-07-26T05:51:46.600Z,58.21
2018-07-26T05:54:16.314Z,57.54
2018-07-26T05:56:45.972Z,57.15
2018-07-26T05:59:15.646Z,57.15
2018-07-26T06:01:45.400Z,57.09
2018-07-26T06:04:15.142Z,57.11
2018-07-26T06:06:44.803Z,56.71
2018-07-26T06:09:14.522Z,57.51
2018-07-26T06:11:44.213Z,56.05
2018-07-26T06:14:13.924Z,55.40
2018-07-26T06:16:43.626Z,54.83
2018-07-26T06:19:13.283Z,55.45
2018-07-26T06:21:42.955Z,55.18
2018-07-26T06:24:12.705Z,54.66
2018-07-26T06:26:42.441Z,54.13
2018-07-26T06:29:12.223Z,54.10
2018-07-26T06:31:41.910Z,52.89
2018-07-26T06:34:11.680Z,52.54
2018-07-26T06:36:41.384Z,52.49
2018-07-26T06:39:12.892Z,51.87
2018-07-26T06:41:43.715Z,52.35
2018-07-26T06:44:14.061Z,52.82
2018-07-26T06:46:43.784Z,50.85
2018-07-26T06:49:13.482Z,51.62
2018-07-26T06:51:43.248Z,50.97
2018-07-26T06:54:12.913Z,50.24
2018-07-26T06:56:42.954Z,49.22
2018-07-26T06:59:12.754Z,48.93
2018-07-26T07:01:42.795Z,48.72
2018-07-26T07:04:12.528Z,48.99
2018-07-26T07:06:42.251Z,48.27
2018-07-26T07:09:12.872Z,47.64
2018-07-26T07:11:42.852Z,47.92
2018-07-26T07:14:12.664Z,47.55
2018-07-26T07:16:42.441Z,47.68
2018-07-26T07:19:12.203Z,47.29
2018-07-26T07:21:41.917Z,45.85
2018-07-26T07:24:15.715Z,46.00
2018-07-26T07:26:45.809Z,45.92
2018-07-26T07:29:15.513Z,45.13
2018-07-26T07:31:45.267Z,44.90
2018-07-26T07:34:15.371Z,45.19
2018-07-26T07:36:45.104Z,45.21
2018-07-26T07:39:15.159Z,43.98
2018-07-26T07:41:45.245Z,44.33
2018-07-26T07:44:14.907Z,44.27
2018-07-26T07:46:44.675Z,43.04
2018-07-26T07:49:14.597Z,43.56
2018-07-26T07:51:44.339Z,44.07
2018-07-26T07:54:14.055Z,42.90
2018-07-26T07:56:44.196Z,42.74
2018-07-26T07:59:13.920Z,42.73
2018-07-26T08:01:43.637Z,42.65
2018-07-26T08:04:13.402Z,42.68
2018-07-26T08:06:43.142Z,43.06
2018-07-26T08:09:13.348Z,42.80
2018-07-26T08:11:43.037Z,42.22
2018-07-26T08:14:12.719Z,41.71
2018-07-26T08:16:42.925Z,41.70
2018-07-26T08:19:12.628Z,42.49
2018-07-26T08:21:42.624Z,42.55
2018-07-26T08:24:12.369Z,41.69
2018-07-26T08:26:42.321Z,40.86
2018-07-26T08:29:12.037Z,41.42
2018-07-26T08:31:42.401Z,41.95
2018-07-26T08:34:12.496Z,41.84
2018-07-26T08:36:42.855Z,40.77
2018-07-26T08:39:13.696Z,41.19
2018-07-26T08:41:43.679Z,41.11
2018-07-26T08:44:13.428Z,39.63
2018-07-26T08:46:43.112Z,39.00
2018-07-26T08:49:13.225Z,39.56
2018-07-26T08:51:42.911Z,38.75
2018-07-26T08:54:13.101Z,37.87
2018-07-26T08:56:42.879Z,37.92
2018-07-26T08:59:12.940Z,38.81
2018-07-26T09:01:42.723Z,38.09
2018-07-26T09:04:12.796Z,36.46
2018-07-26T09:06:42.522Z,35.32
2018-07-26T09:09:13.785Z,34.66
2018-07-26T09:11:43.520Z,34.80
2018-07-26T09:14:13.219Z,35.29
2018-07-26T09:16:42.999Z,35.04
2018-07-26T09:19:12.853Z,34.43
2018-07-26T09:21:43.081Z,35.25
2018-07-26T09:24:12.868Z,34.25
2018-07-26T09:26:42.901Z,35.33
2018-07-26T09:29:12.664Z,35.05
2018-07-26T09:31:42.680Z,34.19
2018-07-26T09:34:12.490Z,34.74
2018-07-26T09:36:42.943Z,35.15
2018-07-26T09:39:15.113Z,35.25
2018-07-26T09:41:44.992Z,35.16
2018-07-26T09:44:14.674Z,35.06
2018-07-26T09:46:44.899Z,35.22
2018-07-26T09:49:14.982Z,34.85
2018-07-26T09:51:44.719Z,35.77
2018-07-26T09:54:14.412Z,34.14
2018-07-26T09:56:44.166Z,33.53
2018-07-26T09:59:14.752Z,34.66
2018-07-26T10:01:44.516Z,34.86
2018-07-26T10:04:14.208Z,33.66
2018-07-26T10:06:43.918Z,34.56
2018-07-26T10:09:13.812Z,34.16
2018-07-26T10:11:43.825Z,33.14
2018-07-26T10:14:13.545Z,34.06
2018-07-26T10:16:43.280Z,33.97
2018-07-26T10:19:12.969Z,32.94
2018-07-26T10:21:42.717Z,33.89
2018-07-26T10:24:12.781Z,33.37
2018-07-26T10:26:42.902Z,32.64
2018-07-26T10:29:12.995Z,32.73
2018-07-26T10:31:42.735Z,33.81
2018-07-26T10:34:12.422Z,31.95
2018-07-26T10:36:42.165Z,31.91
2018-07-26T10:39:12.591Z,32.81
2018-07-26T10:41:42.328Z,31.22
2018-07-26T10:44:12.035Z,31.37
2018-07-26T10:46:42.223Z,31.34
2018-07-26T10:49:11.934Z,31.63
2018-07-26T10:51:41.652Z,31.60
2018-07-26T10:54:11.369Z,30.97
2018-07-26T10:56:41.048Z,30.55
2018-07-26T10:59:11.000Z,29.42
2018-07-26T11:01:40.745Z,29.50
2018-07-26T11:04:10.436Z,30.16
2018-07-26T11:06:40.207Z,30.40
2018-07-26T11:09:10.673Z,30.70
2018-07-26T11:11:40.648Z,28.90
2018-07-26T11:14:10.860Z,29.35
2018-07-26T11:16:40.655Z,29.66
2018-07-26T11:19:10.361Z,29.45
2018-07-26T11:21:40.104Z,29.47
2018-07-26T11:24:10.220Z,29.55
2018-07-26T11:26:40.294Z,29.37
2018-07-26T11:29:09.979Z,30.12
2018-07-26T11:31:39.651Z,30.90
2018-07-26T11:34:09.374Z,30.76
2018-07-26T11:36:39.059Z,29.94
2018-07-26T11:39:11.525Z,30.38
2018-07-26T11:41:41.710Z,30.30
2018-07-26T11:44:11.444Z,30.57
2018-07-26T11:46:41.144Z,30.99
2018-07-26T11:49:10.832Z,31.03
2018-07-26T11:51:40.895Z,30.87
2018-07-26T11:54:10.571Z,30.93
2018-07-26T11:56:40.303Z,30.57
2018-07-26T11:59:10.397Z,29.97
2018-07-26T12:01:40.172Z,30.77
2018-07-26T12:04:09.841Z,31.26
2018-07-26T12:06:39.517Z,31.26
2018-07-26T12:09:10.597Z,30.24
2018-07-26T12:11:40.777Z,29.00
2018-07-26T12:14:11.200Z,28.94
2018-07-26T12:16:40.921Z,28.78
2018-07-26T12:19:10.603Z,28.10
2018-07-26T12:21:40.705Z,29.13
2018-07-26T12:24:10.404Z,28.52
2018-07-26T12:26:40.170Z,28.40
2018-07-26T12:29:09.856Z,28.13
2018-07-26T12:31:39.543Z,27.92
2018-07-26T12:34:09.276Z,29.00
2018-07-26T12:36:38.956Z,28.73
2018-07-26T12:39:11.428Z,27.82
2018-07-26T12:41:41.116Z,27.72
2018-07-26T12:44:11.332Z,28.60
2018-07-26T12:46:41.007Z,27.48
2018-07-26T12:49:10.708Z,27.27
2018-07-26T12:51:40.443Z,27.82
2018-07-26T12:54:10.154Z,27.27
2018-07-26T12:56:39.804Z,26.98
2018-07-26T12:59:09.982Z,27.63
2018-07-26T13:01:39.699Z,27.48
2018-07-26T13:04:09.753Z,28.33
2018-07-26T13:06:39.436Z,26.52
2018-07-26T13:09:10.464Z,26.64
2018-07-26T13:11:40.155Z,26.55
2018-07-26T13:14:10.048Z,26.42
2018-07-26T13:16:39.756Z,27.22
2018-07-26T13:19:09.483Z,26.97
2018-07-26T13:21:39.223Z,27.41
2018-07-26T13:24:09.448Z,27.41
2018-07-26T13:26:39.180Z,25.47
2018-07-26T13:29:08.856Z,26.72
2018-07-26T13:31:38.563Z,25.96
2018-07-26T13:34:08.317Z,26.44
2018-07-26T13:36:38.032Z,26.87
2018-07-26T13:39:11.433Z,27.25
2018-07-26T13:41:41.533Z,26.78
2018-07-26T13:44:11.731Z,25.74
2018-07-26T13:46:42.154Z,25.85
2018-07-26T13:49:11.861Z,25.55
2018-07-26T13:51:41.597Z,25.93
2018-07-26T13:54:11.729Z,25.59
2018-07-26T13:56:41.528Z,24.71
2018-07-26T13:59:11.243Z,25.31
2018-07-26T14:01:41.368Z,25.81
2018-07-26T14:04:11.103Z,24.94
2018-07-26T14:06:40.798Z,24.69
2018-07-26T14:09:11.981Z,24.68
2018-07-26T14:11:42.460Z,25.67
2018-07-26T14:14:12.190Z,26.14
2018-07-26T14:16:41.888Z,26.04
2018-07-26T14:19:11.640Z,26.14
2018-07-26T14:21:41.360Z,24.97
2018-07-26T14:24:16.235Z,25.20
2018-07-26T14:26:45.971Z,24.96
2018-07-26T14:29:15.661Z,25.37
2018-07-26T14:31:45.414Z,25.66
2018-07-26T14:34:15.418Z,27.09
2018-07-26T14:36:45.796Z,25.97
2018-07-26T14:39:15.550Z,26.15
2018-07-26T14:41:45.303Z,25.58
2018-07-26T14:44:15.026Z,26.45
2018-07-26T14:46:44.723Z,27.05
2018-07-26T14:49:14.473Z,26.14
2018-07-26T14:51:44.567Z,25.54
2018-07-26T14:54:14.288Z,26.94
2018-07-26T14:56:43.984Z,26.27
2018-07-26T14:59:13.992Z,26.35
2018-07-26T15:01:43.747Z,27.40
2018-07-26T15:04:13.522Z,27.46
2018-07-26T15:06:43.209Z,27.12
2018-07-26T15:09:13.265Z,27.21
2018-07-26T15:11:42.981Z,27.89
2018-07-26T15:14:12.760Z,27.29
2018-07-26T15:16:42.454Z,27.49
2018-07-26T15:19:12.241Z,27.78
2018-07-26T15:21:41.924Z,27.28
2018-07-26T15:24:12.383Z,28.18
2018-07-26T15:26:42.329Z,28.17
2018-07-26T15:29:12.240Z,28.18
2018-07-26T15:31:41.945Z,28.11
2018-07-26T15:34:11.674Z,28.61
2018-07-26T15:36:41.401Z,27.87
2018-07-26T15:39:11.727Z,28.85
2018-07-26T15:41:44.024Z,28.27
2018-07-26T15:44:16.081Z,27.54
2018-07-26T15:46:45.808Z,28.05
2018-07-26T15:49:15.480Z,29.17
2018-07-26T15:51:45.224Z,29.29
2018-07-26T15:54:14.936Z,28.52
2018-07-26T15:56:44.654Z,28.72
2018-07-26T15:59:14.420Z,28.60
2018-07-26T16:01:44.130Z,28.14
2018-07-26T16:04:13.896Z,28.56
2018-07-26T16:06:43.627Z,29.13
2018-07-26T16:09:13.374Z,28.64
2018-07-26T16:11:43.141Z,28.42
2018-07-26T16:14:12.872Z,29.67
2018-07-26T16:16:42.623Z,29.55
2018-07-26T16:19:12.400Z,30.32
2018-07-26T16:21:42.124Z,29.55
2018-07-26T16:24:11.842Z,29.90
2018-07-26T16:26:41.959Z,28.59
2018-07-26T16:29:11.735Z,28.75
2018-07-26T16:31:41.984Z,29.36
2018-07-26T16:34:11.732Z,29.83
2018-07-26T16:36:41.510Z,30.47
2018-07-26T16:39:12.527Z,29.67
2018-07-26T16:41:42.305Z,29.72
2018-07-26T16:44:12.012Z,31.20
2018-07-26T16:46:41.752Z,30.73
2018-07-26T16:49:11.500Z,29.86
2018-07-26T16:51:41.186Z,29.37
2018-07-26T16:54:10.867Z,30.00
2018-07-26T16:56:40.613Z,30.24
2018-07-26T16:59:10.318Z,30.59
2018-07-26T17:01:39.993Z,31.11
2018-07-26T17:04:09.729Z,30.02
2018-07-26T17:06:39.715Z,30.70
2018-07-26T17:09:11.283Z,30.89
2018-07-26T17:11:41.249Z,30.43
2018-07-26T17:14:10.976Z,30.44
2018-07-26T17:16:40.824Z,30.66
2018-07-26T17:19:10.677Z,29.98
2018-07-26T17:21:40.409Z,30.44
2018-07-26T17:24:10.483Z,31.05
2018-07-26T17:26:40.196Z,30.50
2018-07-26T17:29:09.944Z,31.49
2018-07-26T17:31:39.624Z,30.58
2018-07-26T17:34:09.316Z,31.59
2018-07-26T17:36:39.013Z,30.98
2018-07-26T17:39:10.287Z,31.32
2018-07-26T17:41:40.260Z,31.38
2018-07-26T17:44:09.949Z,31.72
2018-07-26T17:46:39.661Z,31.62
2018-07-26T17:49:09.370Z,31.96
2018-07-26T17:51:39.410Z,32.41
2018-07-26T17:54:09.122Z,32.00
2018-07-26T17:56:38.841Z,32.52
2018-07-26T17:59:08.614Z,31.21
2018-07-26T18:01:38.332Z,32.46
2018-07-26T18:04:08.063Z,31.51
2018-07-26T18:06:37.764Z,32.41
2018-07-26T18:09:08.705Z,32.46
2018-07-26T18:11:38.481Z,32.80
2018-07-26T18:14:08.206Z,31.97
2018-07-26T18:16:37.896Z,32.81
2018-07-26T18:19:07.588Z,32.91
2018-07-26T18:21:37.310Z,33.12
2018-07-26T18:24:07.568Z,33.04
2018-07-26T18:26:37.318Z,34.03
2018-07-26T18:29:07.055Z,33.02
2018-07-26T18:31:36.825Z,34.33
2018-07-26T18:34:06.757Z,34.29
2018-07-26T18:36:36.465Z,33.58
2018-07-26T18:39:09.465Z,34.55
2018-07-26T18:41:39.159Z,35.06
2018-07-26T18:44:09.657Z,35.29
2018-07-26T18:46:39.679Z,34.96
2018-07-26T18:49:10.155Z,35.51
2018-07-26T18:51:39.859Z,35.20
2018-07-26T18:54:09.552Z,35.81
2018-07-26T18:56:39.284Z,36.14
2018-07-26T18:59:08.945Z,35.51
2018-07-26T19:01:38.671Z,36.17
2018-07-26T19:04:08.424Z,35.92
2018-07-26T19:06:38.137Z,36.24
2018-07-26T19:09:10.127Z,36.83
2018-07-26T19:11:40.482Z,36.49
2018-07-26T19:14:10.269Z,36.95
2018-07-26T19:16:39.951Z,36.84
2018-07-26T19:19:09.752Z,36.41
2018-07-26T19:21:39.573Z,36.92
2018-07-26T19:24:09.357Z,37.26
2018-07-26T19:26:39.119Z,37.31
2018-07-26T19:29:09.129Z,37.43
2018-07-26T19:31:39.049Z,36.88
2018-07-26T19:34:08.772Z,37.83
2018-07-26T19:36:38.466Z,37.80
2018-07-26T19:39:10.665Z,37.80
2018-07-26T19:41:41.052Z,37.89
2018-07-26T19:44:11.200Z,36.99
2018-07-26T19:46:41.733Z,38.08
2018-07-26T19:49:11.828Z,37.29
2018-07-26T19:51:41.549Z,38.20
2018-07-26T19:54:11.303Z,38.32
2018-07-26T19:56:41.011Z,38.86
2018-07-26T19:59:11.007Z,38.44
2018-07-26T20:01:41.118Z,37.89
2018-07-26T20:04:10.914Z,38.11
2018-07-26T20:06:40.597Z,38.68
2018-07-26T20:09:11.117Z,38.81
2018-07-26T20:11:40.856Z,38.09
2018-07-26T20:14:10.592Z,38.83
2018-07-26T20:16:41.108Z,38.90
2018-07-26T20:19:11.441Z,38.55
2018-07-26T20:21:41.146Z,39.38
2018-07-26T20:24:10.833Z,39.27
2018-07-26T20:26:40.934Z,39.42
2018-07-26T20:29:11.239Z,39.61
2018-07-26T20:31:41.076Z,39.75
2018-07-26T20:34:10.769Z,39.64
2018-07-26T20:36:40.499Z,39.09
2018-07-26T20:39:13.187Z,40.03
2018-07-26T20:41:43.069Z,39.22
2018-07-26T20:44:13.242Z,39.05
2018-07-26T20:46:42.982Z,39.74
2018-07-26T20:49:12.687Z,40.11
2018-07-26T20:51:42.429Z,40.09
2018-07-26T20:54:12.812Z,39.80
2018-07-26T20:56:42.545Z,39.81
2018-07-26T20:59:12.256Z,40.09
2018-07-26T21:01:41.974Z,40.89
2018-07-26T21:04:11.695Z,40.53
2018-07-26T21:06:41.437Z,40.22
2018-07-26T21:09:13.331Z,40.35
2018-07-26T21:11:43.943Z,41.35
2018-07-26T21:14:13.741Z,41.04
2018-07-26T21:16:43.983Z,40.67
2018-07-26T21:19:13.705Z,40.93
2018-07-26T21:21:43.543Z,41.70
2018-07-26T21:24:13.348Z,41.22
2018-07-26T21:26:43.430Z,41.51
2018-07-26T21:29:13.220Z,41.30
2018-07-26T21:31:43.017Z,41.62
2018-07-26T21:34:12.664Z,42.86
2018-07-26T21:36:42.720Z,42.90
2018-07-26T21:39:13.047Z,42.52
2018-07-26T21:41:43.155Z,43.04
2018-07-26T21:44:13.149Z,42.72
2018-07-26T21:46:43.209Z,43.09
2018-07-26T21:49:12.993Z,45.18
2018-07-26T21:51:42.700Z,45.08
2018-07-26T21:54:12.440Z,45.05
2018-07-26T21:56:42.173Z,45.26
2018-07-26T21:59:11.888Z,46.39
2018-07-26T22:01:41.653Z,46.22
2018-07-26T22:04:11.354Z,46.92
2018-07-26T22:06:41.121Z,45.97
2018-07-26T22:09:11.830Z,46.78
2018-07-26T22:11:41.604Z,46.88
2018-07-26T22:14:11.324Z,47.42
2018-07-26T22:16:41.021Z,48.20
2018-07-26T22:19:10.796Z,48.96
2018-07-26T22:21:40.559Z,48.73
2018-07-26T22:24:10.578Z,48.76
2018-07-26T22:26:40.265Z,47.60
2018-07-26T22:29:09.980Z,48.63
2018-07-26T22:31:39.750Z,49.17
2018-07-26T22:34:10.016Z,48.71
2018-07-26T22:36:39.776Z,49.85
2018-07-26T22:39:11.044Z,49.77
2018-07-26T22:41:41.104Z,50.22
2018-07-26T22:44:10.833Z,49.46
2018-07-26T22:46:40.529Z,49.55
2018-07-26T22:49:10.654Z,49.79
2018-07-26T22:51:40.357Z,49.33
2018-07-26T22:54:10.562Z,49.32
2018-07-26T22:56:40.591Z,50.91
2018-07-26T22:59:10.347Z,50.85
2018-07-26T23:01:40.091Z,50.37
2018-07-26T23:04:09.887Z,50.66
2018-07-26T23:06:39.610Z,50.82
2018-07-26T23:09:10.768Z,50.58
2018-07-26T23:11:40.754Z,51.18
2018-07-26T23:14:10.443Z,50.60
2018-07-26T23:16:40.496Z,51.02
2018-07-26T23:19:10.216Z,51.35
2018-07-26T23:21:39.974Z,50.83
2018-07-26T23:24:09.699Z,52.10
2018-07-26T23:26:39.510Z,51.27
2018-07-26T23:29:09.279Z,51.20
2018-07-26T23:31:38.954Z,51.10
2018-07-26T23:34:09.657Z,52.41
2018-07-26T23:36:39.378Z,52.38
2018-07-26T23:39:11.921Z,51.41
2018-07-26T23:41:41.735Z,52.63
2018-07-26T23:44:11.768Z,52.85
2018-07-26T23:46:41.506Z,53.08
2018-07-26T23:49:11.341Z,53.81
2018-07-26T23:51:41.047Z,53.59
2018-07-26T23:54:11.231Z,53.47
2018-07-26T23:56:40.916Z,53.09
2018-07-26T23:59:11.848Z,52.98
